createdAt,value
2022-09-06T00:00:07.591Z,100290.59
2022-09-06T00:05:14.788Z,100291.09
2022-09-06T00:10:16.533Z,100290.53
2022-09-06T00:15:18.356Z,100289.41
2022-09-06T00:20:21.024Z,100286.59
2022-09-06T00:25:22.596Z,100282.16
2022-09-06T00:30:25.159Z,100278.19
2022-09-06T00:35:27.656Z,100278.44
2022-09-06T00:40:30.597Z,100269.34
2022-09-06T00:45:33.334Z,100268.06
2022-09-06T00:50:35.007Z,100276.72
2022-09-06T00:55:36.635Z,100285.66
2022-09-06T01:00:38.325Z,100305.38
2022-09-06T01:06:09.948Z,100348.28
2022-09-06T01:11:48.343Z,100470.53
2022-09-06T01:17:15.218Z,100503.34
2022-09-06T01:22:40.904Z,100522.88
2022-09-06T01:28:04.148Z,100505.16
2022-09-06T01:33:30.431Z,100533.66
2022-09-06T01:38:32.038Z,100486.97
2022-09-06T01:43:39.342Z,100441.78
2022-09-06T01:49:19.264Z,100489.88
2022-09-06T01:54:51.835Z,100457.56
2022-09-06T02:00:11.828Z,100445.94
2022-09-06T02:05:31.182Z,100450.66
2022-09-06T02:10:54.968Z,100431.31
2022-09-06T02:16:07.635Z,100431.06
2022-09-06T02:21:13.068Z,100432.75
2022-09-06T02:26:19.312Z,100426.09
2022-09-06T02:31:27.746Z,100411.13
2022-09-06T02:36:31.716Z,100415.25
2022-09-06T02:41:34.038Z,100430.44
2022-09-06T02:46:35.613Z,100435.94
2022-09-06T02:51:40.529Z,100438.66
2022-09-06T02:56:42.368Z,100428.63
2022-09-06T03:01:44.148Z,100403.16
2022-09-06T03:06:45.784Z,100411.47
2022-09-06T03:11:47.326Z,100415.88
2022-09-06T03:16:48.984Z,100408.00
2022-09-06T03:21:50.616Z,100404.19
2022-09-06T03:26:52.210Z,100411.59
2022-09-06T03:31:53.781Z,100408.03
2022-09-06T03:36:55.318Z,100388.41
2022-09-06T03:41:56.893Z,100403.06
2022-09-06T03:46:58.748Z,100410.53
2022-09-06T03:52:00.347Z,100413.28
2022-09-06T03:57:01.882Z,100413.81
2022-09-06T04:02:03.881Z,100398.28
2022-09-06T04:07:05.623Z,100395.19
2022-09-06T04:12:07.421Z,100396.78
2022-09-06T04:17:09.097Z,100404.00
2022-09-06T04:22:10.643Z,100398.94
2022-09-06T04:27:12.175Z,100407.16
2022-09-06T04:32:13.902Z,100409.69
2022-09-06T04:37:20.079Z,100389.50
2022-09-06T04:42:21.638Z,100398.84
2022-09-06T04:47:23.532Z,100390.56
2022-09-06T04:52:29.964Z,100397.22
2022-09-06T04:57:31.874Z,100400.00
2022-09-06T05:02:33.584Z,100395.56
2022-09-06T05:07:35.244Z,100392.78
2022-09-06T05:12:38.837Z,100402.78
2022-09-06T05:17:43.745Z,100398.72
2022-09-06T05:22:52.520Z,100405.59
2022-09-06T05:27:54.085Z,100400.72
2022-09-06T05:32:55.644Z,100403.81
2022-09-06T05:37:57.225Z,100413.03
2022-09-06T05:42:59.017Z,100424.72
2022-09-06T05:48:00.569Z,100433.09
2022-09-06T05:53:02.315Z,100432.91
2022-09-06T05:58:03.878Z,100445.44
2022-09-06T06:03:05.451Z,100458.22
2022-09-06T06:08:07.062Z,100460.75
2022-09-06T06:13:11.375Z,100473.63
2022-09-06T06:18:12.951Z,100476.75
2022-09-06T06:23:15.408Z,100485.94
2022-09-06T06:28:16.940Z,100482.94
2022-09-06T06:33:18.548Z,100475.75
2022-09-06T06:38:20.107Z,100484.63
2022-09-06T06:43:21.678Z,100487.31
2022-09-06T06:48:23.321Z,100484.75
2022-09-06T06:53:28.409Z,100480.50
2022-09-06T06:58:30.847Z,100490.91
2022-09-06T07:03:32.429Z,100475.69
2022-09-06T07:08:34.857Z,100465.38
2022-09-06T07:13:36.862Z,100465.13
2022-09-06T07:18:42.056Z,100461.19
2022-09-06T07:34:22.655Z,100479.53
2022-09-06T07:39:24.359Z,100460.94
2022-09-06T07:44:26.534Z,100458.88
2022-09-06T07:49:31.660Z,100476.06
2022-09-06T07:54:35.695Z,100478.44
2022-09-06T07:59:41.151Z,100487.63
2022-09-06T08:04:47.554Z,100488.19
2022-09-06T08:09:53.455Z,100487.19
2022-09-06T08:14:59.685Z,100478.94
2022-09-06T08:20:03.830Z,100472.00
2022-09-06T08:25:06.032Z,100478.22
2022-09-06T08:30:08.359Z,100478.75
2022-09-06T08:35:10.458Z,100473.53
2022-09-06T08:40:15.224Z,100477.06
2022-09-06T08:45:23.247Z,100487.78
2022-09-06T08:50:28.354Z,100487.94
2022-09-06T08:55:39.350Z,100477.03
2022-09-06T09:00:46.910Z,100483.69
2022-09-06T09:05:52.651Z,100498.38
2022-09-06T09:11:07.354Z,100499.44
2022-09-06T09:16:08.997Z,100496.34
2022-09-06T09:21:11.493Z,100497.31
2022-09-06T09:26:15.352Z,100489.28
2022-09-06T09:31:33.451Z,100490.63
2022-09-06T09:36:35.743Z,100485.47
2022-09-06T09:41:40.995Z,100489.44
2022-09-06T09:46:42.681Z,100490.44
2022-09-06T09:52:05.661Z,100500.50
2022-09-06T09:57:11.909Z,100488.16
2022-09-06T10:02:41.388Z,100498.22
2022-09-06T10:07:47.324Z,100492.47
2022-09-06T10:13:05.186Z,100477.81
2022-09-06T10:18:16.880Z,100476.97
2022-09-06T10:28:46.156Z,100471.06
2022-09-06T10:33:50.763Z,100462.34
2022-09-06T10:39:12.524Z,100453.63
2022-09-06T10:44:38.648Z,100445.84
2022-09-06T10:49:44.841Z,100437.72
2022-09-06T10:54:47.399Z,100445.44
2022-09-06T10:59:54.112Z,100439.28
2022-09-06T11:12:12.591Z,100435.94
2022-09-06T11:23:53.619Z,100427.19
2022-09-06T11:28:59.236Z,100418.72
2022-09-06T11:34:11.507Z,100416.63
2022-09-06T11:39:14.939Z,100408.22
2022-09-06T11:44:51.572Z,100417.06
2022-09-06T11:49:53.198Z,100402.50
2022-09-06T11:54:57.299Z,100399.38
2022-09-06T12:07:11.765Z,100386.13
2022-09-06T12:12:49.153Z,100385.56
2022-09-06T12:18:54.499Z,100378.63
2022-09-06T12:23:56.081Z,100374.97
2022-09-06T12:28:58.232Z,100367.22
2022-09-06T12:34:07.887Z,100361.66
2022-09-06T12:39:14.398Z,100359.66
2022-09-06T12:44:31.373Z,100354.84
2022-09-06T12:49:33.654Z,100340.28
2022-09-06T12:54:46.014Z,100342.72
2022-09-06T13:00:04.044Z,100338.34
2022-09-06T13:05:08.888Z,100334.16
2022-09-06T13:10:15.047Z,100330.25
2022-09-06T13:15:22.547Z,100327.03
2022-09-06T13:20:28.666Z,100329.44
2022-09-06T13:25:33.553Z,100323.94
2022-09-06T13:30:49.519Z,100323.00
2022-09-06T13:36:19.556Z,100320.59
2022-09-06T13:41:41.231Z,100321.84
2022-09-06T13:46:43.250Z,100315.03
2022-09-06T13:51:44.859Z,100316.28
2022-09-06T13:56:48.374Z,100303.09
2022-09-06T14:01:56.977Z,100286.41
2022-09-06T14:06:58.703Z,100283.44
2022-09-06T14:12:00.954Z,100287.78
2022-09-06T14:17:02.514Z,100278.28
2022-09-06T14:22:05.605Z,100282.91
2022-09-06T14:27:08.502Z,100275.59
2022-09-06T14:32:10.094Z,100275.25
2022-09-06T14:37:13.530Z,100285.72
2022-09-06T14:42:15.321Z,100302.69
2022-09-06T14:47:17.285Z,100297.06
2022-09-06T14:52:18.959Z,100291.69
2022-09-06T14:57:20.527Z,100297.59
2022-09-06T15:02:22.249Z,100306.16
2022-09-06T15:07:24.222Z,100304.50
2022-09-06T15:12:25.943Z,100284.31
2022-09-06T15:17:27.495Z,100279.84
2022-09-06T15:22:29.059Z,100266.13
2022-09-06T15:27:31.619Z,100251.47
2022-09-06T15:32:33.599Z,100241.47
2022-09-06T15:37:35.115Z,100223.50
2022-09-06T15:42:36.866Z,100214.47
2022-09-06T15:47:40.147Z,100217.53
2022-09-06T15:52:41.717Z,100209.41
2022-09-06T15:57:43.241Z,100202.47
2022-09-06T16:02:44.920Z,100207.88
2022-09-06T16:07:46.575Z,100203.16
2022-09-06T16:12:50.590Z,100187.50
2022-09-06T16:17:54.031Z,100183.97
2022-09-06T16:22:55.566Z,100185.56
2022-09-06T16:27:57.281Z,100175.94
2022-09-06T16:32:59.247Z,100168.88
2022-09-06T16:38:02.289Z,100147.28
2022-09-06T16:43:04.042Z,100131.84
2022-09-06T16:48:07.030Z,100120.41
2022-09-06T16:53:08.554Z,100112.59
2022-09-06T16:58:10.553Z,100102.47
2022-09-06T17:03:14.931Z,100101.25
2022-09-06T17:08:16.483Z,100098.47
2022-09-06T17:13:18.031Z,100106.09
2022-09-06T17:18:19.575Z,100098.97
2022-09-06T17:23:27.306Z,100088.66
2022-09-06T17:28:29.505Z,100099.63
2022-09-06T17:33:32.086Z,100077.09
2022-09-06T17:38:34.270Z,100061.84
2022-09-06T17:43:36.822Z,100060.94
2022-09-06T17:48:38.343Z,100059.28
2022-09-06T17:53:41.253Z,100052.66
2022-09-06T17:58:43.589Z,100054.44
2022-09-06T18:03:51.277Z,100057.28
2022-09-06T18:08:55.790Z,100061.69
2022-09-06T18:20:26.781Z,100055.13
2022-09-06T18:25:28.873Z,100048.00
2022-09-06T18:30:30.411Z,100063.06
2022-09-06T18:35:31.958Z,100054.69
2022-09-06T18:40:33.506Z,100068.00
2022-09-06T18:45:35.120Z,100090.97
2022-09-06T18:50:38.898Z,100100.81
2022-09-06T18:55:42.938Z,100090.22
2022-09-06T19:00:44.495Z,100089.44
2022-09-06T19:05:51.059Z,100090.25
2022-09-06T19:11:18.932Z,100084.50
2022-09-06T19:16:21.411Z,100093.91
2022-09-06T19:21:27.844Z,100095.75
2022-09-06T19:26:32.128Z,100090.09
2022-09-06T19:31:39.294Z,100090.81
2022-09-06T19:36:41.416Z,100082.06
2022-09-06T19:41:45.098Z,100084.13
2022-09-06T19:46:47.671Z,100081.75
2022-09-06T19:51:50.782Z,100078.81
2022-09-06T19:56:52.680Z,100071.97
2022-09-06T20:01:54.329Z,100059.88
2022-09-06T20:06:55.975Z,100052.75
2022-09-06T20:11:57.571Z,100053.66
2022-09-06T20:17:11.317Z,100043.44
2022-09-06T20:22:20.937Z,100058.13
2022-09-06T20:27:22.524Z,100044.16
2022-09-06T20:32:24.065Z,100059.75
2022-09-06T20:37:26.079Z,100057.31
2022-09-06T20:42:27.619Z,100064.88
2022-09-06T20:47:29.419Z,100061.91
2022-09-06T20:52:31.288Z,100073.88
2022-09-06T20:57:32.820Z,100076.94
2022-09-06T21:02:34.371Z,100071.72
2022-09-06T21:07:35.920Z,100068.69
2022-09-06T21:12:37.476Z,100070.16
2022-09-06T21:17:39.023Z,100059.63
2022-09-06T21:22:40.563Z,100061.88
2022-09-06T21:27:45.148Z,100080.44
2022-09-06T21:32:46.700Z,100100.97
2022-09-06T21:37:48.340Z,100097.41
2022-09-06T21:42:49.871Z,100091.59
2022-09-06T21:47:52.099Z,100086.09
2022-09-06T21:52:53.875Z,100079.22
2022-09-06T21:57:55.436Z,100077.84
2022-09-06T22:02:57.176Z,100088.13
2022-09-06T22:07:58.779Z,100085.94
2022-09-06T22:13:00.340Z,100096.19
2022-09-06T22:18:02.032Z,100089.50
2022-09-06T22:23:08.511Z,100083.13
2022-09-06T22:28:10.309Z,100070.72
2022-09-06T22:33:11.868Z,100079.84
2022-09-06T22:38:13.429Z,100077.66
2022-09-06T22:43:15.555Z,100073.78
2022-09-06T22:48:17.584Z,100060.53
2022-09-06T22:53:20.861Z,100071.28
2022-09-06T22:58:28.952Z,100077.41
2022-09-06T23:03:30.637Z,100078.22
2022-09-06T23:08:33.819Z,100060.78
2022-09-06T23:13:35.445Z,100041.41
2022-09-06T23:18:37.037Z,100057.47
2022-09-06T23:23:39.601Z,100055.84
2022-09-06T23:28:41.329Z,100048.06
2022-09-06T23:33:43.668Z,100050.03
2022-09-06T23:38:45.272Z,100041.16
2022-09-06T23:43:46.994Z,100023.75
2022-09-06T23:48:48.621Z,100015.16
2022-09-06T23:53:50.223Z,100009.88
2022-09-06T23:58:51.808Z,100013.75
